x

West Gulf - 207 Nm East Of Brownsville, Tx (42002) Wave Buoy

8:50am - Thu 5th Mar 2015 All times are CST. -6 hours from GMT.

  • Sig Wave height 3.9ft
  • Swell Direction
  • Peak Period 7s
  • Average Period 4s
  • Wind
    29mph, 36mph gusts
  • Sea Temp 71°f
  • Air Temp 67°f
  • Sea Pressure 1017.5mb
  • West Gulf - 207 Nm East Of Brownsville, Tx
  • West Gulf - 207 Nm East Of Brownsville, Tx

More Historic Weather Station data

Upgrade to MSW Pro to gain access to the past 30 days of data for over 8000 Wavebouys and Weather Stations around the globe.

Join Pro

Comparision Forecast

View Surf forecast
   
Thu 03/05 8:50am 4ft 7s 4s 29 36 mph 1017.5mb 71f 67f
7:50am 3.5ft 7s 5s 7
mph
1016.4mb 71f 72f
6:50am 3.5ft 7s 5s 7 9 mph 1015.7mb 71f 71f
5:50am 3.5ft 7s 5s 11 13 mph 1014.8mb 71f 71f
4:50am 4ft 7s 5s 9
mph
1014mb 71f 72f
3:50am 4.5ft 7s 5s 2 4 mph 1012.9mb 71f 72f
2:50am 4.5ft 7s 5s 7 9 mph 1012mb 71f 72f
1:50am 4.5ft 7s 5s 16 20 mph 1011.5mb 71f 72f
12:50am 4.5ft 7s 5s 16 18 mph 1011.8mb 71f 72f
Wed 03/04 11:50pm 4ft 7s 5s 16 20 mph 1011.7mb 71f 72f
10:50pm 4.5ft 7s 5s 16 18 mph 1012.2mb 71f 72f
9:50pm 4ft 7s 5s 16 20 mph 1012mb 71f 72f
8:50pm 4ft 7s 5s 16 18 mph 1011.8mb 71f 72f
7:50pm 4ft 6s 5s 18 20 mph 1010.2mb 71f 72f
6:50pm 4ft 6s 5s 16 20 mph 1009.6mb 71f 72f
5:50pm 4ft 6s 5s 18 20 mph 1009.3mb 71f 72f
4:50pm 4ft 6s 5s 16 18 mph 1009.8mb 71f 73f
3:50pm 4ft 6s 4s 18 20 mph 1009.6mb 71f 73f
2:50pm 4.5ft 6s 5s 18 22 mph 1010mb 71f 73f
1:50pm 4ft 5s 4s 20 22 mph 1010.6mb 71f 73f
12:50pm 4ft 4s 4s 20 25 mph 1011.4mb 71f 73f
11:50am 3.5ft 5s 4s 20 22 mph 1012.3mb 71f 73f
10:50am 3.5ft 6s 4s 20 22 mph 1012.6mb 71f 73f
9:50am 3.5ft 6s 5s 18 20 mph 1012.7mb 71f 73f
8:50am 3ft 6s 5s 13 16 mph 1012.5mb 71f 72f
7:50am 3.5ft 5s 4s 16 18 mph 1012.2mb 71f 72f
6:50am 3ft 5s 4s 13 18 mph 1011.9mb 71f 71f
5:50am 3.5ft 5s 4s 13 16 mph 1011.6mb 71f 72f
4:50am 3ft 5s 4s 16 20 mph 1011.5mb 71f 71f
3:50am 3.5ft 5s 4s 16 18 mph 1011.6mb 71f 71f
2:50am 3ft 5s 4s 18 20 mph 1011.3mb 71f 72f
1:50am 3ft 5s 4s 18 20 mph 1012mb 71f 72f
12:50am 3ft 5s 4s 13 16 mph 1012.8mb 71f 72f
Tue 03/03 11:50pm 2.5ft 5s 4s 13 16 mph 1013.4mb 71f 72f
10:50pm 3ft 5s 4s 13
mph
1013.9mb 71f 72f
9:50pm 2.5ft 4s 4s 13 16 mph 1013.9mb 71f 72f
8:50pm 2.5ft 5s 4s 16 20 mph 1013.5mb 71f 72f
7:50pm 2.5ft 4s 4s 16 20 mph 1013.1mb 71f 72f
6:50pm 2.5ft 4s 4s 16 20 mph 1012.6mb 71f 72f
5:50pm 2.5ft 4s 4s 16 18 mph 1012.5mb 71f 72f
4:50pm 2.5ft 4s 4s 16 18 mph 1012.8mb 71f 72f
3:50pm 2.5ft 4s 4s 13 18 mph 1013.1mb 71f 72f
2:50pm 2.5ft 3s 4s 13 16 mph 1013.8mb 71f 72f
1:50pm 2.5ft 4s 4s 13 16 mph 1014.9mb 71f 72f
12:50pm 2.5ft 7s 4s 13 16 mph 1016.1mb 71f 72f
11:50am 2ft 7s 4s 16 18 mph 1017mb 71f 72f
10:50am 2ft 7s 4s 13 16 mph 1017.7mb 71f 72f
9:50am 1.6ft 7s 4s 13 16 mph 1018mb 71f 72f
8:50am 1.6ft 7s 4s 11 13 mph 1018.2mb 71f 71f
7:50am 1.6ft 7s 4s 11 13 mph 1018.1mb 71f 71f
6:50am 2ft 7s 4s 11 13 mph 1018mb 71f 71f
5:50am 2ft 7s 5s 13 16 mph 1017.9mb 71f 71f
4:50am 2ft 7s 4s 11 13 mph 1017.7mb 71f 71f
3:50am 1.6ft 7s 5s 11 13 mph 1017.6mb 71f 71f
2:50am 1.6ft 7s 5s 11
mph
1018.2mb 71f 71f
1:50am 2ft 7s 5s 11
mph
1019mb 71f 71f
12:50am 2ft 7s 5s 13 16 mph 1019.5mb 71f 71f
Mon 03/02 11:50pm 2ft 8s 5s 11
mph
1020mb 71f 71f
10:50pm 2.5ft 8s 6s 11 13 mph 1020.5mb 71f 71f
9:50pm 2ft 8s 5s 7 9 mph 1020.8mb 71f 71f
8:50pm 2.5ft 6s 5s 9 11 mph 1020.6mb 71f 72f
7:50pm 2.5ft 8s 5s 9 11 mph 1020.2mb 71f 72f
6:50pm 2.5ft 8s 5s 9 11 mph 1020.1mb 72f 72f
5:50pm 2.5ft 8s 5s 9
mph
1020mb 72f 72f
4:50pm 2.5ft 7s 5s 9 11 mph 1020.2mb 72f 73f
3:50pm 2.5ft 8s 6s 9 11 mph 1020.4mb 73f 73f
2:50pm 2.5ft 5s 5s 7 9 mph 1021.2mb 72f 72f
1:50pm 2.5ft 8s 5s 7 9 mph 1021.8mb 72f 72f
12:50pm 3ft 7s 6s 7
mph
1022.7mb 72f 73f
11:50am 2.5ft 7s 6s 4
mph
1023.7mb 73f 73f
10:50am 3ft 8s 6s 4
mph
1024.2mb 71f 71f
9:50am 3ft 7s 6s 4
mph
1024.3mb 70f 71f
8:50am 3.5ft 8s 6s 4
mph
1023.9mb 70f 71f
7:50am 3ft 7s 6s 4
mph
1023.4mb 70f 71f
6:50am 3ft 7s 6s 7
mph
1022.9mb 70f 71f
5:50am 3ft 7s 6s 4 7 mph 1022.2mb 70f 71f
4:50am 3ft 8s 6s 4 7 mph 1021.7mb 70f 71f
3:50am 3ft 6s 5s 7 9 mph 1022mb 70f 71f
2:50am 3.5ft 7s 5s 4
mph
1022.2mb 70f 71f
1:50am 3.5ft 7s 5s 4 7 mph 1022.6mb 70f 71f
12:50am 3.5ft 6s 5s 11
mph
1022.5mb 70f 71f
Sun 03/01 11:50pm 3.5ft 8s 5s 9 11 mph 1022.7mb 70f 71f
10:50pm 3.5ft 8s 5s 13
mph
1022.7mb 70f 71f
9:50pm 3.5ft 7s 5s 13
mph
1022.9mb 70f 71f
8:50pm 3.5ft 8s 5s 13
mph
1022.5mb 70f 71f
7:50pm 3.5ft 7s 5s 13 16 mph 1021.7mb 70f 71f
6:50pm 4ft 7s 5s 13
mph
1021.2mb 70f 71f
5:50pm 4ft 8s 5s 11 13 mph 1021mb 70f 71f
4:50pm 4ft 7s 5s 13 16 mph 1020.6mb 70f 72f